CheckWX is a tool to help pilots better visualize weather data.  It is not intended as a substitute for an official pre-flight weather briefing.

23:13:50 UTC

KMFD TAF
Mansfield Lahm Regional Airport
Mansfield, Ohio, USA
KMFD 191720Z 1918/2018 24007KT P6SM SCT045 TEMPO 1918/1922 BKN045 FM200000 18005KT P6SM SCT250 FM201600 20012KT P6SM BKN250

Mar-19@
18:00 UTC

Mar-19 @ 18:00 UTC

Mar-20@
00:00 UTC

Mar-20 @ 00:00 UTC

KMFD 191720Z 1918/2018 24007KT P6SM SCT045
Wind
  • 240° at 7 KTS
Cloud Levels
  • Scattered at 4,500' AGL

Mar-19@
18:00 UTC

Mar-19 @ 18:00 UTC

Mar-19@
22:00 UTC

Mar-19 @ 22:00 UTC

TEMPO 1918/1922 BKN045

Expired

Cloud Levels
  • Broken at 4,500' AGL

Mar-20@
00:00 UTC

Mar-20 @ 00:00 UTC

Mar-20@
16:00 UTC

Mar-20 @ 16:00 UTC

FM200000 18005KT P6SM SCT250

From

From Standard forecast or significant change

Wind
  • 180° at 5 KTS
Cloud Levels
  • Scattered at 25,000' AGL

Mar-20@
16:00 UTC

Mar-20 @ 16:00 UTC

Mar-20@
18:00 UTC

Mar-20 @ 18:00 UTC

FM201600 20012KT P6SM BKN250

From

From Standard forecast or significant change

Wind
  • 200° at 12 KTS
Cloud Levels
  • Broken at 25,000' AGL